PWSweather.com
Personal Weather Stations
Station Observations
SANDHURSTWX
SandhurstGB

SandhurstGB

Lat: 51.3522, Lon: -0.7739

Elevation: 272.3

Station Type: Davis VP2

www.sandhurstweather.org.uk

High Low Average
Temperature 74.6°F23.7°C 52.7°F11.5°C 64.6°F18.1°C
Dew Point 61.8°F16.6°C 48.3°F9.1°C 56.9°F13.8°C
Winds 5.8 mph 9.3 kmh Calm Calm 1.0 mph WSW1.6 kmh WSW
Wind Gusts 9.2 mph14.8 kmh -- 3.0 mph4.8 kmh
Humidity 93% 57% 77%
Pressure 30.07 in1018.3 mb 30.01 in1016.3 mb -
Precipitation 0.01 in0.3 mm - -
Hour Temp Dew Point Humidity Winds Wind Gusts Pressure Precip Precip Rate Daily Precip Total
12:00 AM 57.3°F14.1°C 48.3°F9.1°C 72% Calm Calm -- 30.01 in1016.3 mb - 0.00 in0.0 mm 0.00 in0.0 mm
01:00 AM 55.7°F13.2°C 50.0°F10.0°C 81% Calm Calm 1.2 mph1.9 kmh 30.01 in1016.3 mb - 0.00 in0.0 mm 0.00 in0.0 mm
02:00 AM 55.3°F12.9°C 50.9°F10.5°C 85% Calm Calm -- 30.01 in1016.3 mb - 0.00 in0.0 mm 0.00 in0.0 mm
03:00 AM 54.6°F12.6°C 51.4°F10.8°C 89% Calm Calm -- 30.01 in1016.3 mb - 0.00 in0.0 mm 0.00 in0.0 mm
04:00 AM 53.4°F11.9°C 50.5°F10.3°C 90% Calm Calm -- 30.02 in1016.6 mb - 0.00 in0.0 mm 0.00 in0.0 mm
05:00 AM 52.7°F11.5°C 50.1°F10.1°C 91% Calm Calm -- 30.03 in1016.9 mb - 0.00 in0.0 mm 0.00 in0.0 mm
06:00 AM 54.5°F12.5°C 52.6°F11.4°C 93% Calm Calm -- 30.03 in1016.9 mb - 0.00 in0.0 mm 0.00 in0.0 mm
07:00 AM 58.6°F14.8°C 55.7°F13.2°C 90% 2.3 mph WNW3.7 kmh WNW 2.3 mph3.7 kmh 30.03 in1016.9 mb - 0.00 in0.0 mm 0.00 in0.0 mm
08:00 AM 62.4°F16.9°C 57.8°F14.3°C 85% 4.6 mph WNW7.4 kmh WNW 3.5 mph5.6 kmh 30.04 in1017.3 mb - 0.00 in0.0 mm 0.00 in0.0 mm
09:00 AM 65.7°F18.7°C 59.0°F15.0°C 79% 4.6 mph NW7.4 kmh NW 5.8 mph9.3 kmh 30.04 in1017.3 mb - 0.00 in0.0 mm 0.00 in0.0 mm
10:00 AM 65.8°F18.8°C 59.1°F15.1°C 79% 1.2 mph NW1.9 kmh NW 4.6 mph7.4 kmh 30.05 in1017.6 mb - 0.00 in0.0 mm 0.00 in0.0 mm
11:00 AM 67.8°F19.9°C 58.9°F14.9°C 73% 2.3 mph N3.7 kmh N 2.3 mph3.7 kmh 30.05 in1017.6 mb - 0.00 in0.0 mm 0.00 in0.0 mm
12:00 PM 68.4°F20.2°C 59.8°F15.4°C 74% Calm Calm 1.2 mph1.9 kmh 30.06 in1017.9 mb - 0.00 in0.0 mm 0.00 in0.0 mm
01:00 PM 69.7°F20.9°C 59.9°F15.5°C 71% 2.3 mph WNW3.7 kmh WNW 3.5 mph5.6 kmh 30.05 in1017.6 mb - 0.00 in0.0 mm 0.00 in0.0 mm
02:00 PM 74.5°F23.6°C 60.6°F15.9°C 62% 5.8 mph WNW9.3 kmh WNW 8.1 mph13.0 kmh 30.04 in1017.3 mb - 0.00 in0.0 mm 0.00 in0.0 mm
03:00 PM 74.5°F23.6°C 59.7°F15.4°C 60% 2.3 mph NW3.7 kmh NW 9.2 mph14.8 kmh 30.02 in1016.6 mb - 0.00 in0.0 mm 0.00 in0.0 mm
04:00 PM 74.2°F23.4°C 58.0°F14.4°C 57% 1.2 mph NW1.9 kmh NW 3.5 mph5.6 kmh 30.02 in1016.6 mb - 0.00 in0.0 mm 0.00 in0.0 mm
05:00 PM 74.6°F23.7°C 59.4°F15.2°C 59% 1.2 mph NNW1.9 kmh NNW 2.3 mph3.7 kmh 30.01 in1016.3 mb - 0.00 in0.0 mm 0.00 in0.0 mm
06:00 PM 73.6°F23.1°C 59.8°F15.4°C 62% 2.3 mph NW3.7 kmh NW 2.3 mph3.7 kmh 30.02 in1016.6 mb - 0.00 in0.0 mm 0.00 in0.0 mm
07:00 PM 73.3°F22.9°C 59.5°F15.3°C 62% 3.5 mph NW5.6 kmh NW 5.8 mph9.3 kmh 30.03 in1016.9 mb - 0.00 in0.0 mm 0.00 in0.0 mm
08:00 PM 68.8°F20.4°C 60.9°F16.1°C 76% Calm Calm 2.3 mph3.7 kmh 30.04 in1017.3 mb - 0.00 in0.0 mm 0.00 in0.0 mm
09:00 PM 66.1°F18.9°C 61.8°F16.6°C 86% Calm Calm -- 30.05 in1017.6 mb - 0.01 in0.3 mm 0.01 in0.3 mm
10:00 PM 65.0°F18.3°C 60.7°F15.9°C 86% Calm Calm 1.2 mph1.9 kmh 30.06 in1017.9 mb - 0.00 in0.0 mm 0.01 in0.3 mm
11:00 PM 64.5°F18.1°C 60.5°F15.8°C 87% 1.2 mph N1.9 kmh N 2.3 mph3.7 kmh 30.07 in1018.3 mb - 0.00 in0.0 mm 0.01 in0.3 mm